createdAt,value
2023-02-28T00:00:11.421Z,47.40
2023-02-28T00:02:38.744Z,47.50
2023-02-28T00:05:05.536Z,47.40
2023-02-28T00:07:32.435Z,47.40
2023-02-28T00:09:59.199Z,47.50
2023-02-28T00:12:25.997Z,47.40
2023-02-28T00:14:53.446Z,47.40
2023-02-28T00:17:22.084Z,47.40
2023-02-28T00:19:50.519Z,47.40
2023-02-28T00:22:19.349Z,47.40
2023-02-28T00:24:46.451Z,47.40
2023-02-28T00:27:13.151Z,47.40
2023-02-28T00:29:39.905Z,47.30
2023-02-28T00:32:06.716Z,47.30
2023-02-28T00:34:38.699Z,47.30
2023-02-28T00:37:09.321Z,47.40
2023-02-28T00:39:36.307Z,47.30
2023-02-28T00:42:03.367Z,47.30
2023-02-28T00:44:30.368Z,47.30
2023-02-28T00:46:57.852Z,47.40
2023-02-28T00:49:24.556Z,47.30
2023-02-28T00:51:51.434Z,47.40
2023-02-28T00:54:18.148Z,47.30
2023-02-28T00:56:44.872Z,47.40
2023-02-28T00:59:12.395Z,47.30
2023-02-28T01:01:39.509Z,47.30
2023-02-28T01:04:06.310Z,47.30
2023-02-28T01:06:33.154Z,47.30
2023-02-28T01:09:00.140Z,47.30
2023-02-28T01:11:27.195Z,47.30
2023-02-28T01:13:54.468Z,47.30
2023-02-28T01:16:21.148Z,47.40
2023-02-28T01:18:47.891Z,47.40
2023-02-28T01:21:15.618Z,47.40
2023-02-28T01:23:42.637Z,47.30
2023-02-28T01:26:10.623Z,47.30
2023-02-28T01:28:37.344Z,47.30
2023-02-28T01:31:04.573Z,47.40
2023-02-28T01:33:31.231Z,47.30
2023-02-28T01:36:08.256Z,47.30
2023-02-28T01:38:36.360Z,47.30
2023-02-28T01:41:03.106Z,47.30
2023-02-28T01:43:30.729Z,47.30
2023-02-28T01:45:58.048Z,47.30
2023-02-28T01:48:27.180Z,47.30
2023-02-28T01:50:53.844Z,47.30
2023-02-28T01:53:22.385Z,47.30
2023-02-28T01:55:49.560Z,47.30
2023-02-28T01:58:16.647Z,47.30
2023-02-28T02:00:43.793Z,47.30
2023-02-28T02:03:12.451Z,47.30
2023-02-28T02:05:39.476Z,47.30
2023-02-28T02:08:07.108Z,47.30
2023-02-28T02:10:35.423Z,47.30
2023-02-28T02:13:02.590Z,47.30
2023-02-28T02:15:32.334Z,47.30
2023-02-28T02:18:01.004Z,47.30
2023-02-28T02:20:35.946Z,47.30
2023-02-28T02:23:21.823Z,47.30
2023-02-28T02:25:51.362Z,47.30
2023-02-28T02:28:24.034Z,47.30
2023-02-28T02:31:10.095Z,47.30
2023-02-28T02:33:55.664Z,47.30
2023-02-28T02:36:26.624Z,47.30
2023-02-28T02:38:54.442Z,47.30
2023-02-28T02:41:25.921Z,47.30
2023-02-28T02:43:54.216Z,47.30
2023-02-28T02:46:32.252Z,47.30
2023-02-28T02:48:59.087Z,47.30
2023-02-28T02:51:25.932Z,47.30
2023-02-28T02:54:23.693Z,47.30
2023-02-28T02:56:50.608Z,47.30
2023-02-28T02:59:22.572Z,47.30
2023-02-28T03:01:53.990Z,47.20
2023-02-28T03:04:22.758Z,47.30
2023-02-28T03:06:58.124Z,47.30
2023-02-28T03:09:25.166Z,47.30
2023-02-28T03:11:52.302Z,47.30
2023-02-28T03:14:19.001Z,47.30
2023-02-28T03:17:01.280Z,47.30
2023-02-28T03:19:46.434Z,47.30
2023-02-28T03:22:31.764Z,47.30
2023-02-28T03:25:10.126Z,47.20
2023-02-28T03:27:36.823Z,47.50
2023-02-28T03:30:16.194Z,47.30
2023-02-28T03:32:52.390Z,47.30
2023-02-28T03:35:22.944Z,47.30
2023-02-28T03:38:04.663Z,47.20
2023-02-28T03:40:31.820Z,47.20
2023-02-28T03:43:00.463Z,47.10
2023-02-28T03:45:27.748Z,47.10
2023-02-28T03:47:55.964Z,47.70
2023-02-28T03:50:26.321Z,47.00
2023-02-28T03:53:05.833Z,47.20
2023-02-28T03:55:37.024Z,47.10
2023-02-28T03:58:09.682Z,47.20
2023-02-28T04:00:41.713Z,47.10
2023-02-28T04:03:08.455Z,47.10
2023-02-28T04:05:35.347Z,47.10
2023-02-28T04:08:08.425Z,47.10
2023-02-28T04:10:35.235Z,47.00
2023-02-28T04:13:03.349Z,47.10
2023-02-28T04:15:30.044Z,47.00
2023-02-28T04:17:56.748Z,47.10
2023-02-28T04:20:23.432Z,47.00
2023-02-28T04:22:50.133Z,47.10
2023-02-28T04:25:16.857Z,47.00
2023-02-28T04:27:45.697Z,47.00
2023-02-28T04:30:12.701Z,46.90
2023-02-28T04:32:40.057Z,47.00
2023-02-28T04:35:07.275Z,46.90
2023-02-28T04:37:35.890Z,46.90
2023-02-28T04:40:04.050Z,46.90
2023-02-28T04:42:36.666Z,46.90
2023-02-28T04:45:03.894Z,46.80
2023-02-28T04:47:30.612Z,46.90
2023-02-28T04:49:57.410Z,46.90
2023-02-28T04:52:25.259Z,46.90
2023-02-28T04:54:51.950Z,46.90
2023-02-28T04:57:18.711Z,46.80
2023-02-28T04:59:46.705Z,46.80
2023-02-28T05:02:13.447Z,46.90
2023-02-28T05:04:40.197Z,46.80
2023-02-28T05:07:07.012Z,47.00
2023-02-28T05:09:34.271Z,46.80
2023-02-28T05:12:01.017Z,46.90
2023-02-28T05:14:27.696Z,46.80
2023-02-28T05:16:54.457Z,46.80
2023-02-28T05:19:22.334Z,46.80
2023-02-28T05:21:53.032Z,46.80
2023-02-28T05:24:23.744Z,46.80
2023-02-28T05:26:52.120Z,46.70
2023-02-28T05:29:18.818Z,46.80
2023-02-28T05:31:46.089Z,46.70
2023-02-28T05:34:13.622Z,46.80
2023-02-28T05:36:40.840Z,46.80
2023-02-28T05:39:08.529Z,46.80
2023-02-28T05:41:35.444Z,46.80
2023-02-28T05:44:02.370Z,46.80
2023-02-28T05:46:29.059Z,46.80
2023-02-28T05:48:56.887Z,46.90
2023-02-28T05:51:23.626Z,46.80
2023-02-28T05:53:50.548Z,46.90
2023-02-28T05:56:17.285Z,46.90
2023-02-28T05:58:44.043Z,46.90
2023-02-28T06:01:24.702Z,46.90
2023-02-28T06:03:51.637Z,46.80
2023-02-28T06:06:18.341Z,46.80
2023-02-28T06:08:45.814Z,46.70
2023-02-28T06:11:12.647Z,45.60
2023-02-28T06:13:39.430Z,46.20
2023-02-28T06:16:06.238Z,46.00
2023-02-28T06:18:32.923Z,46.80
2023-02-28T06:21:00.154Z,46.80
2023-02-28T06:23:29.979Z,47.10
2023-02-28T06:25:59.373Z,46.90
2023-02-28T06:28:26.527Z,47.00
2023-02-28T06:30:53.512Z,47.20
2023-02-28T06:33:20.335Z,47.10
2023-02-28T06:35:53.266Z,47.10
2023-02-28T06:38:20.028Z,47.20
2023-02-28T06:40:53.630Z,47.10
2023-02-28T06:43:20.858Z,47.20
2023-02-28T06:45:47.545Z,47.10
2023-02-28T06:48:14.579Z,47.10
2023-02-28T06:50:41.382Z,47.20
2023-02-28T06:53:08.278Z,47.10
2023-02-28T06:55:34.992Z,47.10
2023-02-28T06:58:01.694Z,47.00
2023-02-28T07:00:28.400Z,47.10
2023-02-28T07:02:56.370Z,47.10
2023-02-28T07:05:23.071Z,47.20
2023-02-28T07:07:49.900Z,47.10
2023-02-28T07:10:20.137Z,47.10
2023-02-28T07:12:47.083Z,47.20
2023-02-28T07:15:13.758Z,47.00
2023-02-28T07:17:41.015Z,47.10
2023-02-28T07:20:08.712Z,47.10
2023-02-28T07:22:35.368Z,47.20
2023-02-28T07:25:02.163Z,47.10
2023-02-28T07:27:28.950Z,47.10
2023-02-28T07:29:55.977Z,47.20
2023-02-28T07:32:31.435Z,47.10
2023-02-28T07:34:58.127Z,47.10
2023-02-28T07:37:25.047Z,47.10
2023-02-28T07:39:52.460Z,47.10
2023-02-28T07:42:19.204Z,47.10
2023-02-28T07:44:52.756Z,47.10
2023-02-28T07:47:19.560Z,47.10
2023-02-28T07:49:49.418Z,47.10
2023-02-28T07:52:16.183Z,47.20
2023-02-28T07:54:46.014Z,47.10
2023-02-28T07:57:12.718Z,47.20
2023-02-28T07:59:39.314Z,47.10
2023-02-28T08:02:05.989Z,47.00
2023-02-28T08:04:33.293Z,47.10
2023-02-28T08:06:59.957Z,47.20
2023-02-28T08:09:26.644Z,46.90
2023-02-28T08:11:53.258Z,47.00
2023-02-28T08:14:20.108Z,47.10
2023-02-28T08:16:49.582Z,47.00
2023-02-28T08:19:16.258Z,47.00
2023-02-28T08:21:42.861Z,46.90
2023-02-28T08:24:09.659Z,46.90
2023-02-28T08:26:36.284Z,46.80
2023-02-28T08:29:02.876Z,46.90
2023-02-28T08:31:29.887Z,46.90
2023-02-28T08:33:59.761Z,46.80
2023-02-28T08:36:27.008Z,46.80
2023-02-28T08:38:53.582Z,46.80
2023-02-28T08:41:20.203Z,46.80
2023-02-28T08:43:46.862Z,46.80
2023-02-28T08:46:13.821Z,46.70
2023-02-28T08:48:40.621Z,46.80
2023-02-28T08:51:11.212Z,46.70
2023-02-28T08:53:38.030Z,46.70
2023-02-28T08:56:08.589Z,46.70
2023-02-28T08:58:35.345Z,46.70
2023-02-28T09:01:01.976Z,46.90
2023-02-28T09:03:28.668Z,46.60
2023-02-28T09:05:55.927Z,46.70
2023-02-28T09:08:22.670Z,46.80
2023-02-28T09:10:49.289Z,46.80
2023-02-28T09:13:15.945Z,46.80
2023-02-28T09:15:42.634Z,46.70
2023-02-28T09:18:09.314Z,46.70
2023-02-28T09:20:38.135Z,46.70
2023-02-28T09:23:04.739Z,46.60
2023-02-28T09:25:31.387Z,46.70
2023-02-28T09:27:58.241Z,46.70
2023-02-28T09:30:25.050Z,46.80
2023-02-28T09:32:54.776Z,46.60
2023-02-28T09:35:22.172Z,46.70
2023-02-28T09:37:49.604Z,46.70
2023-02-28T09:40:18.736Z,46.70
2023-02-28T09:42:46.597Z,46.70
2023-02-28T09:45:33.728Z,46.60
2023-02-28T09:48:00.966Z,46.60
2023-02-28T09:50:27.643Z,46.70
2023-02-28T09:52:54.757Z,46.70
2023-02-28T09:55:46.945Z,46.70
2023-02-28T09:58:37.090Z,46.70
2023-02-28T10:01:05.450Z,46.80
2023-02-28T10:03:43.977Z,46.70
2023-02-28T10:06:13.876Z,46.70
2023-02-28T10:08:51.614Z,46.70
2023-02-28T10:11:18.302Z,46.70
2023-02-28T10:13:57.046Z,46.70
2023-02-28T10:16:25.463Z,46.70
2023-02-28T10:19:04.173Z,46.60
2023-02-28T10:21:32.855Z,46.60
2023-02-28T10:24:04.400Z,47.30
2023-02-28T10:26:31.668Z,46.70
2023-02-28T10:28:58.520Z,46.70
2023-02-28T10:31:26.389Z,46.60
2023-02-28T10:33:53.227Z,46.60
2023-02-28T10:36:20.373Z,46.60
2023-02-28T10:38:47.221Z,46.70
2023-02-28T10:41:15.711Z,46.60
2023-02-28T10:43:42.689Z,46.60
2023-02-28T10:46:09.319Z,46.50
2023-02-28T10:48:35.978Z,46.60
2023-02-28T10:51:02.830Z,46.50
2023-02-28T10:53:36.122Z,46.60
2023-02-28T10:56:11.402Z,46.60
2023-02-28T10:58:43.886Z,46.50
2023-02-28T11:01:14.020Z,46.60
2023-02-28T11:03:40.629Z,46.50
2023-02-28T11:06:08.973Z,46.60
2023-02-28T11:08:35.594Z,46.50
2023-02-28T11:11:04.732Z,46.60
2023-02-28T11:13:35.225Z,46.60
2023-02-28T11:16:03.655Z,46.50
2023-02-28T11:18:31.220Z,46.60
2023-02-28T11:20:58.433Z,46.50
2023-02-28T11:23:26.060Z,46.60
2023-02-28T11:25:54.840Z,46.60
2023-02-28T11:28:34.480Z,46.50
2023-02-28T11:31:14.780Z,46.60
2023-02-28T11:33:45.943Z,46.50
2023-02-28T11:36:14.204Z,46.50
2023-02-28T11:38:40.890Z,46.50
2023-02-28T11:41:16.614Z,46.50
2023-02-28T11:44:02.063Z,46.60
2023-02-28T11:46:31.992Z,46.50
2023-02-28T11:49:14.547Z,46.50
2023-02-28T11:51:47.389Z,46.50
2023-02-28T11:54:16.993Z,46.50
2023-02-28T11:56:52.442Z,46.50
2023-02-28T11:59:22.157Z,46.50
2023-02-28T12:02:01.127Z,46.50
2023-02-28T12:04:51.167Z,46.60
2023-02-28T12:07:24.122Z,46.60
2023-02-28T12:10:03.218Z,46.50
2023-02-28T12:12:36.187Z,46.60
2023-02-28T12:15:08.965Z,46.50
2023-02-28T12:17:47.925Z,46.50
2023-02-28T12:20:34.836Z,46.60
2023-02-28T12:23:20.486Z,46.60
2023-02-28T12:25:50.282Z,46.60
2023-02-28T12:28:17.805Z,46.50
2023-02-28T12:30:53.151Z,46.60
2023-02-28T12:33:21.226Z,46.50
2023-02-28T12:35:52.565Z,46.50
2023-02-28T12:38:26.418Z,46.50
2023-02-28T12:41:02.117Z,46.50
2023-02-28T12:43:32.308Z,46.60
2023-02-28T12:46:05.465Z,46.50
2023-02-28T12:48:43.437Z,46.60
2023-02-28T12:51:10.106Z,46.70
2023-02-28T12:53:40.705Z,46.60
2023-02-28T12:56:10.458Z,46.60
2023-02-28T12:58:38.818Z,46.60
2023-02-28T13:01:28.948Z,46.50
2023-02-28T13:04:05.190Z,46.50
2023-02-28T13:06:39.318Z,46.50
2023-02-28T13:09:13.543Z,46.50
2023-02-28T13:11:41.839Z,46.50
2023-02-28T13:14:27.983Z,46.50
2023-02-28T13:16:58.462Z,46.10
2023-02-28T13:19:26.497Z,46.50
2023-02-28T13:21:53.212Z,46.40
2023-02-28T13:24:35.425Z,46.50
2023-02-28T13:27:02.118Z,46.50
2023-02-28T13:29:32.520Z,46.50
2023-02-28T13:32:09.191Z,46.50
2023-02-28T13:34:36.399Z,46.50
2023-02-28T13:37:21.816Z,46.50
2023-02-28T13:39:49.973Z,46.50
2023-02-28T13:42:23.843Z,46.50
2023-02-28T13:45:03.026Z,46.50
2023-02-28T13:47:30.917Z,46.50
2023-02-28T13:50:33.278Z,46.50
2023-02-28T13:53:15.211Z,46.50
2023-02-28T13:55:48.217Z,46.50
2023-02-28T13:58:30.363Z,46.50
2023-02-28T14:00:57.175Z,46.50
2023-02-28T14:03:26.901Z,46.50
2023-02-28T14:06:17.228Z,46.50
2023-02-28T14:08:49.328Z,46.50
2023-02-28T14:11:25.017Z,46.50
2023-02-28T14:13:52.445Z,46.50
2023-02-28T14:16:23.039Z,46.50
2023-02-28T14:18:51.395Z,46.50
2023-02-28T14:21:26.434Z,46.40
2023-02-28T14:24:11.885Z,46.50
2023-02-28T14:26:47.965Z,46.60
2023-02-28T14:29:29.822Z,46.50
2023-02-28T14:32:02.903Z,46.50
2023-02-28T14:35:05.414Z,46.50
2023-02-28T14:37:52.188Z,46.40
2023-02-28T14:40:21.361Z,46.20
2023-02-28T14:42:58.100Z,46.50
2023-02-28T14:45:24.912Z,46.50
2023-02-28T14:47:52.238Z,46.50
2023-02-28T14:50:19.934Z,46.60
2023-02-28T14:52:46.646Z,46.20
2023-02-28T14:55:14.755Z,46.20
2023-02-28T14:57:42.159Z,46.40
2023-02-28T15:00:16.282Z,46.50
2023-02-28T15:02:43.054Z,46.40
2023-02-28T15:05:18.932Z,46.40
2023-02-28T15:07:46.495Z,46.50
2023-02-28T15:10:26.677Z,46.40
2023-02-28T15:12:54.211Z,46.50
2023-02-28T15:15:28.150Z,46.40
2023-02-28T15:18:02.724Z,46.50
2023-02-28T15:20:29.407Z,46.50
2023-02-28T15:22:56.596Z,46.50
2023-02-28T15:25:23.419Z,46.50
2023-02-28T15:27:51.246Z,46.50
2023-02-28T15:30:19.703Z,46.40
2023-02-28T15:32:48.221Z,46.50
2023-02-28T15:35:25.768Z,46.40
2023-02-28T15:37:56.440Z,46.40
2023-02-28T15:40:23.476Z,46.50
2023-02-28T15:43:00.130Z,46.50
2023-02-28T15:45:28.156Z,46.60
2023-02-28T15:47:57.876Z,46.50
2023-02-28T15:50:29.917Z,46.50
2023-02-28T15:52:57.245Z,46.50
2023-02-28T15:55:25.011Z,46.50
2023-02-28T15:57:52.842Z,46.50
2023-02-28T16:00:23.706Z,46.50
2023-02-28T16:02:50.581Z,46.40
2023-02-28T16:05:22.197Z,46.40
2023-02-28T16:07:50.166Z,46.40
2023-02-28T16:10:16.908Z,46.10
2023-02-28T16:12:44.078Z,46.60
2023-02-28T16:15:22.674Z,46.50
2023-02-28T16:17:49.571Z,46.50
2023-02-28T16:20:20.482Z,46.50
2023-02-28T16:22:48.217Z,46.60
2023-02-28T16:25:15.515Z,46.50
2023-02-28T16:27:42.233Z,46.60
2023-02-28T16:30:09.386Z,46.40
2023-02-28T16:32:37.389Z,46.10
2023-02-28T16:35:05.579Z,46.20
2023-02-28T16:37:34.091Z,46.50
2023-02-28T16:40:00.929Z,46.50
2023-02-28T16:42:29.715Z,46.70
2023-02-28T16:44:57.696Z,46.50
2023-02-28T16:47:25.870Z,45.80
2023-02-28T16:49:54.515Z,46.40
2023-02-28T16:52:21.902Z,46.70
2023-02-28T16:54:48.690Z,47.10
2023-02-28T16:57:21.129Z,46.40
2023-02-28T16:59:50.634Z,46.60
2023-02-28T17:02:18.326Z,46.60
2023-02-28T17:04:53.449Z,45.10
2023-02-28T17:07:20.412Z,44.60
2023-02-28T17:09:47.165Z,46.20
2023-02-28T17:12:14.649Z,47.00
2023-02-28T17:14:42.064Z,46.10
2023-02-28T17:17:13.117Z,46.20
2023-02-28T17:19:45.402Z,46.10
2023-02-28T17:22:14.225Z,46.20
2023-02-28T17:24:41.034Z,46.30
2023-02-28T17:27:10.241Z,46.80
2023-02-28T17:29:36.951Z,46.30
2023-02-28T17:32:16.974Z,46.50
2023-02-28T17:34:45.005Z,46.40
2023-02-28T17:37:11.726Z,46.60
2023-02-28T17:39:38.399Z,46.70
2023-02-28T17:42:05.147Z,46.90
2023-02-28T17:44:31.848Z,46.70
2023-02-28T17:46:58.637Z,47.00
2023-02-28T17:49:25.371Z,46.90
2023-02-28T17:51:52.163Z,46.60
2023-02-28T17:54:19.269Z,46.60
2023-02-28T17:56:46.211Z,47.10
2023-02-28T17:59:13.193Z,47.50
2023-02-28T18:01:40.099Z,48.10
2023-02-28T18:04:06.894Z,48.00
2023-02-28T18:06:37.913Z,47.90
2023-02-28T18:09:04.593Z,47.50
2023-02-28T18:11:42.538Z,47.50
2023-02-28T18:14:09.351Z,46.60
2023-02-28T18:16:36.234Z,47.50
2023-02-28T18:19:07.066Z,47.40
2023-02-28T18:21:33.946Z,47.50
2023-02-28T18:24:00.798Z,47.40
2023-02-28T18:26:27.870Z,47.20
2023-02-28T18:28:55.203Z,47.40
2023-02-28T18:31:22.266Z,47.20
2023-02-28T18:33:49.232Z,47.10
2023-02-28T18:36:16.311Z,47.20
2023-02-28T18:38:43.881Z,47.10
2023-02-28T18:41:10.832Z,47.10
2023-02-28T18:43:40.509Z,47.00
2023-02-28T18:46:08.212Z,47.00
2023-02-28T18:48:35.147Z,47.10
2023-02-28T18:51:31.174Z,46.90
2023-02-28T18:53:58.921Z,46.90
2023-02-28T18:56:25.834Z,47.00
2023-02-28T18:58:52.862Z,47.00
2023-02-28T19:01:23.768Z,47.10
2023-02-28T19:03:50.512Z,46.90
2023-02-28T19:06:17.565Z,47.40
2023-02-28T19:08:44.421Z,46.80
2023-02-28T19:11:11.936Z,46.80
2023-02-28T19:13:38.849Z,47.40
2023-02-28T19:16:06.234Z,46.80
2023-02-28T19:18:32.985Z,46.80
2023-02-28T19:20:59.828Z,46.80
2023-02-28T19:23:26.991Z,46.90
2023-02-28T19:25:53.715Z,46.80
2023-02-28T19:28:30.845Z,46.80
2023-02-28T19:30:57.562Z,46.90
2023-02-28T19:33:24.286Z,47.40
2023-02-28T19:35:51.139Z,46.80
2023-02-28T19:38:17.956Z,46.90
2023-02-28T19:40:44.744Z,46.90
2023-02-28T19:43:11.540Z,46.80
2023-02-28T19:45:38.475Z,47.00
2023-02-28T19:48:05.331Z,46.80
2023-02-28T19:50:32.290Z,46.80
2023-02-28T19:53:00.552Z,46.90
2023-02-28T19:55:27.576Z,46.90
2023-02-28T19:57:54.293Z,46.80
2023-02-28T20:00:21.873Z,46.90
2023-02-28T20:02:48.941Z,46.80
2023-02-28T20:05:17.165Z,47.00
2023-02-28T20:07:44.241Z,47.00
2023-02-28T20:10:11.907Z,46.80
2023-02-28T20:12:38.636Z,46.90
2023-02-28T20:15:05.675Z,46.40
2023-02-28T20:17:32.271Z,47.00
2023-02-28T20:19:59.073Z,46.90
2023-02-28T20:22:25.743Z,47.20
2023-02-28T20:24:53.404Z,47.00
2023-02-28T20:27:19.992Z,46.90
2023-02-28T20:29:46.716Z,46.80
2023-02-28T20:32:13.377Z,46.80
2023-02-28T20:34:39.981Z,46.80
2023-02-28T20:37:06.576Z,46.80
2023-02-28T20:39:33.292Z,46.80
2023-02-28T20:41:59.978Z,46.70
2023-02-28T20:44:26.552Z,46.70
2023-02-28T20:46:53.257Z,46.80
2023-02-28T20:49:19.935Z,46.80
2023-02-28T20:51:46.512Z,46.70
2023-02-28T20:54:14.020Z,46.70
2023-02-28T20:56:40.783Z,46.70
2023-02-28T20:59:07.517Z,46.60
2023-02-28T21:01:34.389Z,46.60
2023-02-28T21:04:01.945Z,47.30
2023-02-28T21:06:29.772Z,46.70
2023-02-28T21:08:56.911Z,46.70
2023-02-28T21:11:30.431Z,46.60
2023-02-28T21:13:58.748Z,46.60
2023-02-28T21:16:26.068Z,46.70
2023-02-28T21:18:55.923Z,46.60
2023-02-28T21:21:23.186Z,46.60
2023-02-28T21:23:49.957Z,46.60
2023-02-28T21:26:17.500Z,46.50
2023-02-28T21:28:44.273Z,46.50
2023-02-28T21:31:11.986Z,46.50
2023-02-28T21:33:38.750Z,46.50
2023-02-28T21:36:09.353Z,46.50
2023-02-28T21:38:36.258Z,46.50
2023-02-28T21:41:12.753Z,46.50
2023-02-28T21:43:39.674Z,46.50
2023-02-28T21:46:07.054Z,46.50
2023-02-28T21:48:33.749Z,46.40
2023-02-28T21:51:02.509Z,46.50
2023-02-28T21:53:30.921Z,46.40
2023-02-28T21:56:01.484Z,46.40
2023-02-28T21:58:28.104Z,46.50
2023-02-28T22:00:54.991Z,46.50
2023-02-28T22:03:21.582Z,46.50
2023-02-28T22:05:48.188Z,46.40
2023-02-28T22:08:14.821Z,46.40
2023-02-28T22:10:41.412Z,46.40
2023-02-28T22:13:08.152Z,46.40
2023-02-28T22:15:37.707Z,46.50
2023-02-28T22:18:04.542Z,46.40
2023-02-28T22:20:31.219Z,46.40
2023-02-28T22:22:57.817Z,46.40
2023-02-28T22:25:24.564Z,46.40
2023-02-28T22:27:51.216Z,46.40
2023-02-28T22:30:18.215Z,46.40
2023-02-28T22:32:44.836Z,46.40
2023-02-28T22:35:11.534Z,47.10
2023-02-28T22:37:38.441Z,46.50
2023-02-28T22:40:05.389Z,46.50
2023-02-28T22:42:35.416Z,46.40
2023-02-28T22:45:02.027Z,46.50
2023-02-28T22:47:28.654Z,46.40
2023-02-28T22:49:55.240Z,46.50
2023-02-28T22:52:21.893Z,46.30
2023-02-28T22:54:51.567Z,46.40
2023-02-28T22:57:18.219Z,46.40
2023-02-28T22:59:44.815Z,46.40
2023-02-28T23:02:11.429Z,46.50
2023-02-28T23:04:38.129Z,46.40
2023-02-28T23:07:04.736Z,46.40
2023-02-28T23:09:31.330Z,46.40
2023-02-28T23:11:57.993Z,46.40
2023-02-28T23:14:24.697Z,46.40
2023-02-28T23:16:52.406Z,46.40
2023-02-28T23:19:19.194Z,46.40
2023-02-28T23:21:45.940Z,46.40
2023-02-28T23:24:13.133Z,46.40
2023-02-28T23:26:40.307Z,46.30
2023-02-28T23:29:06.969Z,46.50
2023-02-28T23:31:33.922Z,46.50
2023-02-28T23:34:00.801Z,46.50
2023-02-28T23:36:27.534Z,46.40
2023-02-28T23:38:54.216Z,46.40
2023-02-28T23:41:21.121Z,46.40
2023-02-28T23:43:47.741Z,46.50
2023-02-28T23:46:15.093Z,46.40
2023-02-28T23:48:41.945Z,46.30
2023-02-28T23:51:09.629Z,46.40
2023-02-28T23:53:37.274Z,46.20
2023-02-28T23:56:04.437Z,46.30
2023-02-28T23:58:31.110Z,46.40
